Time;durP1;ratioP1;P1;durP2;ratioP2;P2;SDS_P1;SDS_P2;PMS_P1;PMS_P2;Temp;Humidity;BMP_temperature;BMP_pressure;BME280_temperature;BME280_humidity;BME280_pressure;Samples;Min_cycle;Max_cycle;Signal;HPM_P1;HPM_P2
2022/04/27 00:01:39;;;;;;;16.98;7.65;;;14.10;78.90;;;;;;5054937;28;20072;-61
2022/04/27 00:04:05;;;;;;;15.10;7.07;;;14.10;78.90;;;;;;5054025;28;20057;-61
2022/04/27 00:06:30;;;;;;;15.40;6.97;;;14.10;79.10;;;;;;5083871;28;20032;-61
2022/04/27 00:08:56;;;;;;;16.85;7.43;;;14.10;79.00;;;;;;5049266;28;20036;-61
2022/04/27 00:11:21;;;;;;;12.70;6.97;;;14.10;79.10;;;;;;5084261;28;20043;-61
2022/04/27 00:13:47;;;;;;;16.10;7.40;;;14.10;79.10;;;;;;5062875;28;20475;-62
2022/04/27 00:16:12;;;;;;;12.93;7.15;;;14.10;79.20;;;;;;5083884;28;20409;-61
2022/04/27 00:18:38;;;;;;;13.63;7.15;;;14.00;79.20;;;;;;5057561;28;20071;-61
2022/04/27 00:21:03;;;;;;;12.98;7.05;;;14.00;79.30;;;;;;5077485;28;20433;-61
2022/04/27 00:23:32;;;;;;;16.20;7.47;;;14.00;79.30;;;;;;5084646;28;20510;-60
2022/04/27 00:25:57;;;;;;;12.82;6.55;;;14.00;79.40;;;;;;5083500;28;20107;-61
2022/04/27 00:28:23;;;;;;;14.88;6.70;;;13.90;79.30;;;;;;5083756;28;20413;-61
2022/04/27 00:30:48;;;;;;;12.85;6.57;;;14.00;79.60;;;;;;5063713;28;20514;-61
2022/04/27 00:33:15;;;;;;;15.48;7.05;;;13.90;79.60;;;;;;5083270;28;20418;-61
2022/04/27 00:35:41;;;;;;;13.77;6.68;;;13.90;79.50;;;;;;5078962;28;20027;-61
2022/04/27 00:38:06;;;;;;;13.13;6.68;;;13.90;79.50;;;;;;5057634;28;20164;-61
2022/04/27 00:40:32;;;;;;;12.82;6.93;;;13.90;79.50;;;;;;5083414;28;20051;-60
2022/04/27 00:42:57;;;;;;;11.88;6.13;;;13.90;79.60;;;;;;5061169;28;20025;-62
2022/04/27 00:45:23;;;;;;;11.60;6.63;;;13.90;79.80;;;;;;5082146;28;20039;-61
2022/04/27 00:47:48;;;;;;;14.52;6.82;;;13.90;79.80;;;;;;5081090;28;20035;-61
2022/04/27 00:50:14;;;;;;;14.98;6.47;;;13.80;79.80;;;;;;5084084;28;20030;-61
2022/04/27 00:52:39;;;;;;;19.95;7.07;;;13.80;80.00;;;;;;5079934;28;20043;-61
2022/04/27 00:55:05;;;;;;;13.75;6.68;;;13.80;80.00;;;;;;5049909;28;20063;-61
2022/04/27 00:57:30;;;;;;;13.55;6.60;;;13.80;80.00;;;;;;5081575;28;20387;-61
2022/04/27 00:59:56;;;;;;;15.05;6.40;;;13.80;80.10;;;;;;5064172;28;20078;-61
2022/04/27 01:02:21;;;;;;;13.10;6.68;;;13.80;80.10;;;;;;5064735;28;20557;-61
2022/04/27 01:04:47;;;;;;;12.18;6.60;;;13.70;80.10;;;;;;5083373;28;20507;-61
2022/04/27 01:07:13;;;;;;;10.65;6.35;;;13.70;80.30;;;;;;5058811;28;20341;-61
2022/04/27 01:09:38;;;;;;;17.13;7.20;;;13.70;80.30;;;;;;5077968;28;20590;-61
2022/04/27 01:12:04;;;;;;;11.18;6.60;;;13.70;80.40;;;;;;5048715;28;20024;-61
2022/04/27 01:14:43;;;;;;;12.20;6.70;;;13.70;80.50;;;;;;5047879;28;20676;-61
2022/04/27 01:17:08;;;;;;;14.07;7.50;;;13.60;80.50;;;;;;5058257;28;20028;-61
2022/04/27 01:19:34;;;;;;;12.07;6.05;;;13.70;80.40;;;;;;5064622;28;20043;-61
2022/04/27 01:21:59;;;;;;;15.50;6.90;;;13.70;80.50;;;;;;5060242;28;20099;-61
2022/04/27 01:24:25;;;;;;;13.32;6.95;;;13.60;80.50;;;;;;5043343;28;20068;-61
2022/04/27 01:26:51;;;;;;;15.52;7.28;;;13.60;80.60;;;;;;5061179;28;21550;-61
2022/04/27 01:29:17;;;;;;;13.55;7.00;;;13.60;80.60;;;;;;5082684;28;20502;-61
2022/04/27 01:31:44;;;;;;;13.73;7.05;;;13.60;80.60;;;;;;5048712;28;20062;-61
2022/04/27 01:34:10;;;;;;;13.57;7.13;;;13.60;80.70;;;;;;5058397;28;20272;-61
2022/04/27 01:36:35;;;;;;;12.65;7.13;;;13.60;80.70;;;;;;5057546;28;20078;-61
2022/04/27 01:39:01;;;;;;;13.10;6.55;;;13.50;80.80;;;;;;5082166;28;20414;-61
2022/04/27 01:41:26;;;;;;;14.25;7.18;;;13.40;80.80;;;;;;5059129;28;20028;-61
2022/04/27 01:43:51;;;;;;;12.40;7.05;;;13.50;80.90;;;;;;5055505;28;20027;-61
2022/04/27 01:46:17;;;;;;;15.23;7.45;;;13.50;81.00;;;;;;5081662;28;20133;-61
2022/04/27 01:48:42;;;;;;;11.68;6.47;;;13.50;81.00;;;;;;5059846;28;20567;-61
2022/04/27 01:51:09;;;;;;;15.15;6.50;;;13.50;81.00;;;;;;5059576;28;20032;-61
2022/04/27 01:56:19;;;;;;;13.68;7.22;;;13.40;81.00;;;;;;5073614;28;20451;-61
2022/04/27 01:58:45;;;;;;;12.10;6.25;;;13.40;81.00;;;;;;5065542;28;20056;-61
2022/04/27 02:01:11;;;;;;;11.77;6.22;;;13.40;81.10;;;;;;5068128;28;20055;-60
2022/04/27 02:03:37;;;;;;;12.43;6.32;;;13.40;81.20;;;;;;5066185;28;20028;-61
2022/04/27 02:06:03;;;;;;;15.88;7.20;;;13.40;81.20;;;;;;5064569;28;20771;-61
2022/04/27 02:08:28;;;;;;;11.98;6.50;;;13.40;81.20;;;;;;5067621;28;20028;-61
2022/04/27 02:10:54;;;;;;;14.07;7.03;;;13.40;81.30;;;;;;5086827;28;20046;-61
2022/04/27 02:13:20;;;;;;;16.25;6.60;;;13.40;81.30;;;;;;5078949;28;20046;-61
2022/04/27 02:15:45;;;;;;;15.02;6.80;;;13.30;82.00;;;;;;5063840;28;20150;-61
2022/04/27 02:18:11;;;;;;;13.20;6.57;;;13.30;81.40;;;;;;5066608;28;20367;-60
2022/04/27 02:20:36;;;;;;;11.88;6.57;;;13.30;81.50;;;;;;5067213;28;20039;-62
2022/04/27 02:23:02;;;;;;;14.27;6.03;;;13.30;81.50;;;;;;5066870;28;20016;-61
2022/04/27 02:25:27;;;;;;;13.23;6.75;;;13.20;81.60;;;;;;5066137;28;20085;-61
2022/04/27 02:27:53;;;;;;;12.07;6.30;;;13.20;81.50;;;;;;5082277;28;20510;-61
2022/04/27 02:30:19;;;;;;;12.85;6.63;;;13.20;81.50;;;;;;5059298;28;20050;-61
2022/04/27 02:32:45;;;;;;;13.55;7.05;;;13.30;81.70;;;;;;5050275;28;20526;-61
2022/04/27 02:35:11;;;;;;;13.10;6.63;;;13.20;81.70;;;;;;5034616;28;20745;-61
2022/04/27 02:37:37;;;;;;;14.35;6.97;;;13.20;81.70;;;;;;5063407;28;20029;-61
2022/04/27 02:40:03;;;;;;;14.32;6.50;;;13.20;81.70;;;;;;5062014;28;20019;-60
2022/04/27 02:42:29;;;;;;;12.65;6.90;;;13.20;81.70;;;;;;5063219;28;20042;-61
2022/04/27 02:44:55;;;;;;;11.95;6.82;;;13.10;81.80;;;;;;5054058;28;20032;-61
2022/04/27 02:47:21;;;;;;;14.55;6.60;;;13.10;81.80;;;;;;5062303;28;20031;-61
2022/04/27 02:52:30;;;;;;;13.02;6.70;;;13.10;82.00;;;;;;5055848;28;20437;-61
2022/04/27 02:54:56;;;;;;;13.13;6.50;;;13.00;81.90;;;;;;5032994;28;20123;-60
2022/04/27 02:57:22;;;;;;;15.90;7.18;;;13.00;82.00;;;;;;5084952;28;20013;-61
2022/04/27 02:59:47;;;;;;;15.68;6.70;;;13.00;82.00;;;;;;5079966;28;20093;-61
2022/04/27 03:02:13;;;;;;;13.50;6.88;;;13.00;82.00;;;;;;5050174;28;20087;-61
2022/04/27 03:04:38;;;;;;;14.40;7.45;;;13.00;82.10;;;;;;5050275;28;20033;-60
2022/04/27 03:07:04;;;;;;;15.07;7.75;;;12.90;82.10;;;;;;5063544;28;21267;-61
2022/04/27 03:09:30;;;;;;;16.17;6.68;;;12.90;82.10;;;;;;5059753;28;20081;-61
2022/04/27 03:11:55;;;;;;;14.38;7.28;;;12.90;82.20;;;;;;5054900;28;20422;-60
2022/04/27 03:14:21;;;;;;;12.55;6.57;;;12.90;82.30;;;;;;5056030;28;20021;-61
2022/04/27 03:16:47;;;;;;;16.63;7.13;;;12.90;82.40;;;;;;5047997;28;20496;-61
2022/04/27 03:19:13;;;;;;;11.85;6.65;;;12.80;82.30;;;;;;5064439;28;20024;-61
2022/04/27 03:21:38;;;;;;;17.02;7.28;;;12.80;82.30;;;;;;5065696;28;20444;-61
2022/04/27 03:24:05;;;;;;;15.05;7.38;;;12.80;82.40;;;;;;5060543;28;20032;-61
2022/04/27 03:26:30;;;;;;;14.75;6.18;;;12.80;82.50;;;;;;5044310;28;20523;-61
2022/04/27 03:28:56;;;;;;;15.68;6.93;;;12.70;82.50;;;;;;5084498;28;20103;-61
2022/04/27 03:31:21;;;;;;;14.85;7.10;;;12.80;82.50;;;;;;5084365;28;20036;-61
2022/04/27 03:33:47;;;;;;;14.07;6.57;;;12.70;82.70;;;;;;5057824;28;20044;-60
2022/04/27 03:36:12;;;;;;;12.32;6.55;;;12.70;82.40;;;;;;5083900;28;20047;-61
2022/04/27 03:38:38;;;;;;;11.43;6.57;;;12.70;82.40;;;;;;5083098;28;20036;-61
2022/04/27 03:41:07;;;;;;;15.43;7.28;;;12.70;82.50;;;;;;5084991;28;20024;-61
2022/04/27 03:43:33;;;;;;;11.95;6.82;;;12.70;82.50;;;;;;5065347;28;20382;-61
2022/04/27 03:45:58;;;;;;;15.07;7.30;;;12.70;82.60;;;;;;5059937;28;20053;-61
2022/04/27 03:48:24;;;;;;;13.95;7.38;;;12.60;82.60;;;;;;5076354;28;20038;-61
2022/04/27 03:50:49;;;;;;;16.40;6.35;;;12.60;82.70;;;;;;5079643;28;20560;-60
2022/04/27 03:53:15;;;;;;;14.10;6.60;;;12.60;82.80;;;;;;5084491;28;20046;-61
2022/04/27 03:55:40;;;;;;;14.70;6.65;;;12.60;82.70;;;;;;5083846;28;20047;-61
2022/04/27 03:58:06;;;;;;;11.50;6.85;;;12.60;82.70;;;;;;5061417;28;20032;-61
2022/04/27 04:00:31;;;;;;;12.82;6.90;;;12.60;82.70;;;;;;5050215;28;20032;-61
2022/04/27 04:03:03;;;;;;;14.73;7.10;;;12.50;83.40;;;;;;5043257;28;20056;-61
2022/04/27 04:05:29;;;;;;;12.45;7.05;;;12.50;82.70;;;;;;5034391;28;20283;-61
2022/04/27 04:07:55;;;;;;;13.85;6.95;;;12.50;82.70;;;;;;5048135;28;20707;-60
2022/04/27 04:10:20;;;;;;;14.48;6.95;;;12.50;82.90;;;;;;5082417;28;20032;-60
2022/04/27 04:12:46;;;;;;;12.77;7.63;;;12.50;82.80;;;;;;5060192;28;20139;-61
2022/04/27 04:15:12;;;;;;;14.43;7.40;;;12.40;82.80;;;;;;5059073;28;20028;-61
2022/04/27 04:17:40;;;;;;;15.40;7.65;;;12.40;82.90;;;;;;5075661;28;20027;-61
2022/04/27 04:20:07;;;;;;;12.95;6.72;;;12.40;83.00;;;;;;5072306;28;20036;-60
2022/04/27 04:22:32;;;;;;;16.38;7.32;;;12.40;82.90;;;;;;5070832;28;20103;-60
2022/04/27 04:28:29;;;;;;;15.32;6.93;;;12.40;82.90;;;;;;5063541;28;20048;-60
2022/04/27 04:30:36;;;;;;;12.43;6.88;;;12.40;82.90;;;;;;5049998;28;20079;-60
2022/04/27 04:33:02;;;;;;;14.18;6.95;;;12.30;82.90;;;;;;5082611;28;20123;-61
2022/04/27 04:35:27;;;;;;;12.95;6.93;;;12.30;83.00;;;;;;5061632;28;20020;-61
2022/04/27 04:37:54;;;;;;;11.43;7.18;;;12.30;83.00;;;;;;5058932;28;20059;-60
2022/04/27 04:40:20;;;;;;;14.15;6.90;;;12.30;83.00;;;;;;5077814;28;20082;-60
2022/04/27 04:42:45;;;;;;;11.80;7.00;;;12.30;83.10;;;;;;5080742;28;20016;-61
2022/04/27 04:45:11;;;;;;;13.27;6.72;;;12.30;83.10;;;;;;5061142;28;20040;-61
2022/04/27 04:47:36;;;;;;;11.60;6.63;;;12.30;83.00;;;;;;5061140;28;20042;-61
2022/04/27 04:50:02;;;;;;;12.25;6.97;;;12.20;83.00;;;;;;5074121;28;20051;-61
2022/04/27 04:52:27;;;;;;;14.38;7.43;;;12.20;83.10;;;;;;5078796;28;20067;-60
2022/04/27 04:54:53;;;;;;;15.27;7.38;;;12.20;83.10;;;;;;5073537;28;20467;-61
2022/04/27 04:57:18;;;;;;;12.77;7.32;;;12.20;83.10;;;;;;5047974;28;20109;-61
2022/04/27 04:59:44;;;;;;;12.30;7.30;;;12.20;83.20;;;;;;5054732;28;20416;-61
2022/04/27 05:02:09;;;;;;;13.70;6.82;;;12.20;83.30;;;;;;5060092;28;20392;-61
2022/04/27 05:04:35;;;;;;;11.38;6.82;;;12.10;83.20;;;;;;5049801;28;20035;-61
2022/04/27 05:07:00;;;;;;;10.48;7.20;;;12.10;83.30;;;;;;5063902;28;20093;-61
2022/04/27 05:09:26;;;;;;;15.57;6.97;;;12.10;83.30;;;;;;5061710;28;20040;-61
2022/04/27 05:11:51;;;;;;;14.35;7.45;;;12.10;83.20;;;;;;5062902;28;20032;-61
2022/04/27 05:14:17;;;;;;;15.30;7.38;;;12.10;83.10;;;;;;5061940;28;20396;-61
2022/04/27 05:16:42;;;;;;;11.02;6.53;;;12.10;83.10;;;;;;5044651;28;20021;-61
2022/04/27 05:19:08;;;;;;;15.50;6.95;;;12.10;83.20;;;;;;5060452;28;20041;-61
2022/04/27 05:21:33;;;;;;;11.48;6.85;;;12.10;83.20;;;;;;5042476;28;20037;-61
2022/04/27 05:23:59;;;;;;;17.42;7.45;;;12.00;83.10;;;;;;5025523;28;20032;-60
2022/04/27 05:26:24;;;;;;;16.52;7.65;;;12.00;83.10;;;;;;5053814;28;20025;-60
2022/04/27 05:34:19;;;;;;;12.88;7.57;;;12.00;83.20;;;;;;5045270;28;20086;-61
2022/04/27 05:36:44;;;;;;;14.50;7.60;;;12.00;83.30;;;;;;5062520;28;20107;-61
2022/04/27 05:39:10;;;;;;;17.65;8.20;;;12.00;83.30;;;;;;5061846;28;20025;-61
2022/04/27 05:41:35;;;;;;;15.30;7.20;;;12.00;83.30;;;;;;5044747;28;20109;-61
2022/04/27 05:44:07;;;;;;;14.50;7.80;;;11.90;83.30;;;;;;5058916;28;20425;-61
2022/04/27 05:46:34;;;;;;;18.02;8.20;;;11.90;83.40;;;;;;5060577;28;20741;-61
2022/04/27 05:49:00;;;;;;;14.30;7.95;;;11.90;83.40;;;;;;5062430;28;20048;-61
2022/04/27 05:51:25;;;;;;;16.42;6.85;;;11.90;83.50;;;;;;5057110;28;20024;-61
2022/04/27 05:53:51;;;;;;;17.27;8.02;;;11.90;83.60;;;;;;5008745;28;20861;-61
2022/04/27 05:56:19;;;;;;;12.35;7.53;;;11.90;83.70;;;;;;5059640;28;20304;-60
2022/04/27 05:58:44;;;;;;;13.82;7.85;;;11.90;83.80;;;;;;5062532;28;20150;-61
2022/04/27 06:01:11;;;;;;;17.20;7.95;;;11.90;83.80;;;;;;5038613;28;20136;-61
2022/04/27 06:03:37;;;;;;;13.07;7.60;;;11.90;83.80;;;;;;5063263;28;20032;-60
2022/04/27 06:06:03;;;;;;;16.17;7.93;;;11.80;83.90;;;;;;5041675;28;20085;-61
2022/04/27 06:08:28;;;;;;;13.52;7.55;;;11.80;84.00;;;;;;5065650;28;20032;-61
2022/04/27 06:10:54;;;;;;;15.32;8.90;;;11.80;84.00;;;;;;5051350;28;20058;-61
2022/04/27 06:13:19;;;;;;;16.73;8.43;;;11.80;84.00;;;;;;5042738;28;20040;-61
2022/04/27 06:15:45;;;;;;;15.57;8.07;;;11.80;84.10;;;;;;5048898;28;20060;-61
2022/04/27 06:18:10;;;;;;;13.93;7.95;;;11.80;84.00;;;;;;5022723;28;20127;-61
2022/04/27 06:20:36;;;;;;;16.88;8.43;;;11.80;84.10;;;;;;5056297;28;20372;-60
2022/04/27 06:23:01;;;;;;;20.60;8.80;;;11.80;84.10;;;;;;5059260;28;20039;-61
2022/04/27 06:25:27;;;;;;;15.40;8.52;;;11.90;84.30;;;;;;5054815;28;20576;-61
2022/04/27 06:27:52;;;;;;;17.35;8.65;;;11.80;84.20;;;;;;5032713;28;24621;-61
2022/04/27 06:30:18;;;;;;;16.08;9.15;;;11.80;84.20;;;;;;5044678;28;20479;-61
2022/04/27 06:32:44;;;;;;;12.23;7.97;;;11.80;84.20;;;;;;5042123;28;20063;-60
2022/04/27 06:35:13;;;;;;;13.60;8.38;;;11.80;84.30;;;;;;5018090;28;20840;-61
2022/04/27 06:37:39;;;;;;;13.40;8.18;;;11.80;84.40;;;;;;5020765;28;20044;-61
2022/04/27 06:40:05;;;;;;;14.13;8.75;;;11.80;84.30;;;;;;5047614;28;20032;-61
2022/04/27 06:42:31;;;;;;;26.45;10.05;;;11.80;84.40;;;;;;5056356;28;20111;-60
2022/04/27 06:45:00;;;;;;;19.40;9.05;;;11.80;84.50;;;;;;5036870;28;20400;-61
2022/04/27 06:47:25;;;;;;;20.02;10.40;;;11.80;84.60;;;;;;5044816;28;20027;-61
2022/04/27 06:49:51;;;;;;;16.83;9.85;;;11.80;84.40;;;;;;5066000;28;20019;-61
2022/04/27 06:52:16;;;;;;;19.77;10.77;;;11.80;84.40;;;;;;5040595;28;20028;-61
2022/04/27 06:54:42;;;;;;;19.00;11.60;;;11.80;84.50;;;;;;5026129;28;20017;-61
2022/04/27 06:57:07;;;;;;;17.95;11.23;;;11.80;84.40;;;;;;5043379;28;20041;-61
2022/04/27 06:59:33;;;;;;;20.70;11.73;;;11.80;84.50;;;;;;5041988;28;20032;-61
2022/04/27 07:01:58;;;;;;;17.10;11.93;;;11.80;84.50;;;;;;5030365;28;20094;-61
2022/04/27 07:04:24;;;;;;;17.20;11.48;;;11.80;84.60;;;;;;5053690;28;20051;-61
2022/04/27 07:06:49;;;;;;;17.80;11.85;;;11.80;84.60;;;;;;5069413;28;20503;-61
2022/04/27 07:09:15;;;;;;;18.58;11.63;;;11.80;84.60;;;;;;5078335;28;20080;-61
2022/04/27 07:11:40;;;;;;;18.98;11.77;;;11.80;84.70;;;;;;5069418;28;20048;-61
2022/04/27 07:14:06;;;;;;;18.38;11.70;;;11.80;84.80;;;;;;5052521;28;20037;-61
2022/04/27 07:16:32;;;;;;;25.15;11.43;;;11.80;85.20;;;;;;5074529;28;20024;-61
2022/04/27 07:18:57;;;;;;;19.85;10.50;;;11.90;85.20;;;;;;5076919;28;20054;-61
2022/04/27 07:21:23;;;;;;;15.93;10.60;;;11.90;85.20;;;;;;5053648;28;20020;-61
2022/04/27 07:23:49;;;;;;;29.50;11.02;;;11.80;85.10;;;;;;5052173;28;20050;-61
2022/04/27 07:26:15;;;;;;;27.90;11.00;;;11.90;85.00;;;;;;5072799;28;20563;-61
2022/04/27 07:28:41;;;;;;;21.23;9.80;;;11.90;85.10;;;;;;5074198;28;20042;-61
2022/04/27 07:31:06;;;;;;;20.50;10.88;;;11.90;85.10;;;;;;5053489;28;20039;-61
2022/04/27 07:33:32;;;;;;;31.85;11.20;;;11.90;85.00;;;;;;5075288;28;20027;-61
2022/04/27 07:35:57;;;;;;;24.08;10.50;;;11.90;85.00;;;;;;5074698;28;20097;-61
2022/04/27 07:38:23;;;;;;;30.35;10.52;;;11.90;84.90;;;;;;5057946;28;20111;-61
2022/04/27 07:40:48;;;;;;;16.90;11.07;;;11.90;85.00;;;;;;5054205;28;20067;-61
2022/04/27 07:43:15;;;;;;;22.92;9.40;;;11.90;85.00;;;;;;5058337;28;20130;-61
2022/04/27 07:45:44;;;;;;;25.27;9.73;;;11.90;84.90;;;;;;5038133;28;20056;-61
2022/04/27 07:48:10;;;;;;;18.48;10.02;;;11.90;85.00;;;;;;5078644;28;20020;-61
2022/04/27 07:50:35;;;;;;;18.40;9.77;;;11.90;85.10;;;;;;5053422;28;20060;-61
2022/04/27 07:53:01;;;;;;;17.52;10.00;;;11.90;85.30;;;;;;5079174;28;20024;-61
2022/04/27 07:55:26;;;;;;;15.85;11.85;;;11.90;85.30;;;;;;5077372;28;20032;-60
2022/04/27 07:57:52;;;;;;;20.85;12.15;;;11.90;85.70;;;;;;5058009;28;20024;-61
2022/04/27 08:00:17;;;;;;;26.38;11.85;;;12.00;85.50;;;;;;5043847;28;20492;-61
2022/04/27 08:02:43;;;;;;;25.10;11.38;;;12.00;85.50;;;;;;5043726;28;20048;-61
2022/04/27 08:05:09;;;;;;;26.55;11.40;;;12.00;85.90;;;;;;5056756;28;20036;-61
2022/04/27 08:07:45;;;;;;;19.17;10.63;;;12.00;85.70;;;;;;5054364;28;20159;-61
2022/04/27 08:10:16;;;;;;;24.83;11.52;;;12.10;85.40;;;;;;5072231;28;20032;-61
2022/04/27 08:12:44;;;;;;;23.40;11.23;;;12.00;86.00;;;;;;5053510;28;20030;-61
2022/04/27 08:15:10;;;;;;;41.78;12.02;;;12.10;86.00;;;;;;5055357;28;20163;-61
2022/04/27 08:17:35;;;;;;;28.63;11.75;;;12.10;85.60;;;;;;5070953;28;20234;-61
2022/04/27 08:22:46;;;;;;;34.05;12.00;;;12.20;85.50;;;;;;5059814;28;20046;-60
2022/04/27 08:25:11;;;;;;;30.95;12.02;;;12.20;85.40;;;;;;5073150;28;21166;-61
2022/04/27 08:27:37;;;;;;;32.97;11.95;;;12.20;85.80;;;;;;5038175;28;20479;-61
2022/04/27 08:30:03;;;;;;;21.40;11.77;;;12.20;86.00;;;;;;5050677;28;20056;-61
2022/04/27 08:32:28;;;;;;;18.92;10.50;;;12.20;85.80;;;;;;5054262;28;20039;-61
2022/04/27 08:34:54;;;;;;;26.52;11.13;;;12.30;85.40;;;;;;5046300;28;20036;-61
2022/04/27 08:37:19;;;;;;;23.30;11.13;;;12.30;85.40;;;;;;5049792;28;20032;-62
2022/04/27 08:39:45;;;;;;;24.67;11.18;;;12.40;85.30;;;;;;5060783;28;20033;-61
2022/04/27 08:42:10;;;;;;;25.58;11.32;;;12.40;85.40;;;;;;5063070;28;20483;-61
2022/04/27 08:44:36;;;;;;;21.27;11.57;;;12.40;85.30;;;;;;5038351;28;20060;-61
2022/04/27 08:47:05;;;;;;;22.65;10.68;;;12.40;85.30;;;;;;5038790;28;20032;-61
2022/04/27 08:49:34;;;;;;;22.85;10.68;;;12.50;85.30;;;;;;5053719;28;20569;-61
2022/04/27 08:52:01;;;;;;;20.25;10.75;;;12.50;85.30;;;;;;5033618;28;20760;-61
2022/04/27 08:54:27;;;;;;;20.55;10.25;;;12.40;85.00;;;;;;5049544;28;20067;-60
2022/04/27 08:56:53;;;;;;;17.83;10.38;;;12.50;85.00;;;;;;5054606;28;20023;-61
2022/04/27 08:59:19;;;;;;;25.90;11.15;;;12.50;85.40;;;;;;5038029;28;20020;-61
2022/04/27 09:01:44;;;;;;;15.93;10.02;;;12.50;85.50;;;;;;5047890;28;20040;-62
2022/04/27 09:04:14;;;;;;;24.10;10.93;;;12.60;85.40;;;;;;5030279;28;20444;-62
2022/04/27 09:06:40;;;;;;;20.23;11.20;;;12.60;85.20;;;;;;5050432;28;20041;-61
2022/04/27 09:09:10;;;;;;;19.02;10.77;;;12.60;85.20;;;;;;5073533;28;20051;-61
2022/04/27 09:11:37;;;;;;;22.55;11.32;;;12.70;85.00;;;;;;5053354;28;20043;-60
2022/04/27 09:14:03;;;;;;;19.98;10.40;;;12.70;85.00;;;;;;5058054;28;20028;-60
2022/04/27 09:22:06;;;;;;;20.90;11.30;;;12.80;84.90;;;;;;5057389;28;20046;-60
2022/04/27 09:24:51;;;;;;;16.40;10.63;;;12.80;84.90;;;;;;5052859;28;20035;-61
2022/04/27 09:27:18;;;;;;;17.67;10.10;;;12.90;84.80;;;;;;5055264;28;20104;-60
2022/04/27 09:30:07;;;;;;;18.90;10.23;;;12.90;84.70;;;;;;5054708;28;20111;-60
2022/04/27 09:32:33;;;;;;;23.65;11.02;;;12.90;84.60;;;;;;5068142;28;20482;-60
2022/04/27 09:35:03;;;;;;;14.93;10.02;;;13.00;84.40;;;;;;5053449;28;20040;-60
2022/04/27 09:37:30;;;;;;;17.45;10.38;;;13.00;84.30;;;;;;5041828;28;20028;-60
2022/04/27 09:40:11;;;;;;;21.23;11.23;;;13.10;84.20;;;;;;5044549;28;20045;-60
2022/04/27 09:42:38;;;;;;;18.70;9.75;;;13.10;84.10;;;;;;5048626;28;20052;-60
2022/04/27 09:45:16;;;;;;;21.85;10.60;;;13.10;83.80;;;;;;5036513;28;20101;-60
2022/04/27 09:47:58;;;;;;;12.43;9.75;;;13.20;83.60;;;;;;5058410;28;20030;-60
2022/04/27 09:50:24;;;;;;;22.38;10.77;;;13.20;83.50;;;;;;5061813;28;20110;-60
2022/04/27 09:52:49;;;;;;;26.52;11.65;;;13.20;83.50;;;;;;5027172;28;20159;-60
2022/04/27 09:55:15;;;;;;;17.35;10.75;;;13.30;83.30;;;;;;5020804;28;20135;-60
2022/04/27 09:57:41;;;;;;;18.25;10.23;;;13.30;82.80;;;;;;5075253;28;20036;-61
2022/04/27 10:00:07;;;;;;;19.90;11.98;;;13.30;82.80;;;;;;5051218;28;21335;-60
2022/04/27 10:02:34;;;;;;;16.27;10.10;;;13.40;82.80;;;;;;5051556;28;20040;-60
2022/04/27 10:05:00;;;;;;;18.85;11.57;;;13.40;82.50;;;;;;5034372;28;20032;-60
2022/04/27 10:07:25;;;;;;;20.25;11.43;;;13.50;82.50;;;;;;5046977;28;20086;-60
2022/04/27 10:09:51;;;;;;;19.75;11.90;;;13.50;82.30;;;;;;5035615;28;20048;-60
2022/04/27 10:12:16;;;;;;;18.05;11.55;;;13.60;82.30;;;;;;5052514;28;20024;-60
2022/04/27 10:14:42;;;;;;;16.90;10.73;;;13.50;82.00;;;;;;5055757;28;20052;-60
2022/04/27 10:17:09;;;;;;;26.00;11.75;;;13.60;81.80;;;;;;5069672;28;20055;-61
2022/04/27 10:19:34;;;;;;;17.88;11.45;;;13.70;81.40;;;;;;5031625;28;20038;-60
2022/04/27 10:22:01;;;;;;;20.17;13.95;;;13.70;81.30;;;;;;5046800;28;20036;-60
2022/04/27 10:24:46;;;;;;;16.73;12.50;;;13.70;81.10;;;;;;5075279;28;20031;-60
2022/04/27 10:27:41;;;;;;;19.35;12.40;;;13.80;80.90;;;;;;5069378;28;20056;-60
2022/04/27 10:30:08;;;;;;;20.40;11.32;;;13.80;80.70;;;;;;5030532;28;20361;-60
2022/04/27 10:32:43;;;;;;;18.80;12.20;;;13.90;80.50;;;;;;5080861;28;20107;-60
2022/04/27 10:35:12;;;;;;;16.90;11.38;;;13.90;80.30;;;;;;5060966;28;21658;-61
2022/04/27 10:38:05;;;;;;;14.93;10.50;;;13.90;80.00;;;;;;5074751;28;20063;-60
2022/04/27 10:40:31;;;;;;;20.13;11.25;;;14.00;79.70;;;;;;5043424;28;20032;-60
2022/04/27 10:43:06;;;;;;;17.58;10.60;;;14.00;79.40;;;;;;5060256;28;20024;-60
2022/04/27 10:45:31;;;;;;;20.02;11.27;;;14.10;79.30;;;;;;5081893;28;20107;-60
2022/04/27 10:47:57;;;;;;;13.82;10.98;;;14.10;79.30;;;;;;5066376;28;20107;-61
2022/04/27 10:50:23;;;;;;;17.75;10.82;;;14.20;78.80;;;;;;5062815;28;20064;-61
2022/04/27 10:52:55;;;;;;;17.08;12.32;;;14.20;78.10;;;;;;5058687;28;20032;-61
2022/04/27 10:55:38;;;;;;;18.42;11.55;;;14.20;77.90;;;;;;5080536;28;20090;-60
2022/04/27 10:58:18;;;;;;;16.08;11.73;;;14.30;78.10;;;;;;5084200;28;20054;-60
2022/04/27 11:01:01;;;;;;;12.60;10.55;;;14.30;78.20;;;;;;5082403;28;20056;-59
2022/04/27 11:03:27;;;;;;;20.23;11.73;;;14.30;78.10;;;;;;5080467;28;20030;-60
2022/04/27 11:05:56;;;;;;;23.27;12.15;;;14.40;78.10;;;;;;5059536;28;20523;-60
2022/04/27 11:08:59;;;;;;;19.45;12.40;;;14.40;77.60;;;;;;5079525;28;20036;-61
2022/04/27 11:11:27;;;;;;;17.67;11.30;;;14.50;77.30;;;;;;5064122;28;20054;-60
2022/04/27 11:14:01;;;;;;;20.45;11.32;;;14.60;77.00;;;;;;5075856;28;20031;-60
2022/04/27 11:16:27;;;;;;;15.45;10.70;;;14.70;76.70;;;;;;5046469;28;20039;-61
2022/04/27 11:18:57;;;;;;;25.95;12.10;;;14.60;76.40;;;;;;5044203;28;20028;-60
2022/04/27 11:21:29;;;;;;;14.43;10.15;;;14.70;76.10;;;;;;5030778;28;20107;-61
2022/04/27 11:23:55;;;;;;;19.05;10.07;;;14.80;76.00;;;;;;5057128;28;20036;-60
2022/04/27 11:26:20;;;;;;;14.55;9.73;;;14.90;76.10;;;;;;5044147;28;21022;-61
2022/04/27 11:28:46;;;;;;;17.27;9.65;;;14.90;75.90;;;;;;5058675;28;20101;-60
2022/04/27 11:31:12;;;;;;;17.98;9.23;;;15.00;75.70;;;;;;5059521;28;20035;-60
2022/04/27 11:33:40;;;;;;;15.55;8.50;;;15.00;75.40;;;;;;5051333;28;20092;-60
2022/04/27 11:36:26;;;;;;;13.30;9.00;;;15.10;75.10;;;;;;5056051;28;20412;-60
2022/04/27 11:38:52;;;;;;;15.18;9.73;;;15.20;75.10;;;;;;5041124;28;20059;-60
2022/04/27 11:41:20;;;;;;;14.27;9.27;;;15.30;74.60;;;;;;5057109;28;20036;-60
2022/04/27 11:43:46;;;;;;;12.43;8.63;;;15.40;74.50;;;;;;5045069;28;20032;-60
2022/04/27 11:46:11;;;;;;;13.35;8.40;;;15.40;74.10;;;;;;5047572;28;20035;-60
2022/04/27 11:48:37;;;;;;;10.60;8.98;;;15.50;73.90;;;;;;5077282;28;20399;-61
2022/04/27 11:51:02;;;;;;;13.52;8.02;;;15.50;73.70;;;;;;5051949;28;20056;-60
2022/04/27 11:53:28;;;;;;;14.38;8.07;;;15.60;73.80;;;;;;5081072;28;20162;-61
2022/04/27 11:55:54;;;;;;;16.42;8.05;;;15.60;73.80;;;;;;5060855;28;20020;-60
2022/04/27 11:58:23;;;;;;;12.65;7.68;;;15.70;73.60;;;;;;5065023;28;20051;-60
2022/04/27 12:00:53;;;;;;;14.00;8.30;;;15.80;73.40;;;;;;5055016;28;20659;-60
2022/04/27 12:03:18;;;;;;;12.32;7.38;;;15.90;73.10;;;;;;5045134;28;20047;-60
2022/04/27 12:05:46;;;;;;;12.57;7.47;;;15.90;72.80;;;;;;5059672;28;20036;-60
2022/04/27 12:08:18;;;;;;;11.20;7.35;;;16.00;72.50;;;;;;5024985;28;20574;-61
2022/04/27 12:10:44;;;;;;;13.75;7.25;;;16.10;72.20;;;;;;5056710;28;20077;-61
2022/04/27 12:13:09;;;;;;;11.80;6.78;;;16.20;71.90;;;;;;5052986;28;20066;-61
2022/04/27 12:15:36;;;;;;;15.80;6.43;;;16.20;71.80;;;;;;5052860;28;20036;-61
2022/04/27 12:18:01;;;;;;;10.23;6.20;;;16.30;72.10;;;;;;5073363;28;20681;-61
2022/04/27 12:20:36;;;;;;;14.65;6.43;;;16.30;72.00;;;;;;5040195;28;20078;-61
2022/04/27 12:23:06;;;;;;;13.68;7.18;;;16.40;71.70;;;;;;5074050;28;20205;-61
2022/04/27 12:26:00;;;;;;;10.80;7.43;;;16.40;71.10;;;;;;5043327;28;20027;-60
2022/04/27 12:28:31;;;;;;;14.20;6.40;;;16.50;70.90;;;;;;5071697;28;20349;-60
2022/04/27 12:30:58;;;;;;;7.70;6.90;;;16.60;70.70;;;;;;5044150;28;20384;-60
2022/04/27 12:33:27;;;;;;;11.18;7.13;;;16.60;70.20;;;;;;5053485;28;20027;-60
2022/04/27 12:39:09;;;;;;;14.73;9.07;;;16.80;70.00;;;;;;5058679;28;20151;-61
2022/04/27 12:41:44;;;;;;;9.45;8.43;;;16.80;69.70;;;;;;5042019;28;20040;-60
2022/04/27 12:44:19;;;;;;;11.27;8.50;;;16.90;69.90;;;;;;5058118;28;20095;-61
2022/04/27 12:46:58;;;;;;;14.13;9.13;;;16.90;69.70;;;;;;5053550;28;20075;-61
2022/04/27 12:49:42;;;;;;;15.73;9.68;;;17.00;69.60;;;;;;5077578;28;20042;-61
2022/04/27 12:52:17;;;;;;;16.80;8.70;;;17.10;69.30;;;;;;5039150;28;20044;-61
2022/04/27 12:54:44;;;;;;;13.85;9.05;;;17.10;68.90;;;;;;5057990;28;20131;-61
2022/04/27 12:57:09;;;;;;;14.57;9.15;;;17.20;68.80;;;;;;5045482;28;20077;-61
2022/04/27 12:59:57;;;;;;;14.30;8.70;;;17.40;68.70;;;;;;5044694;28;20028;-61